Terminal Aerodrome Forecast
Issued by NWS

Home | Current Version | Previous Version | Text Only | Print | Product List | Glossary On
Versions: 1 2 3 4 5 6 7 8 9 10 11 12 13 14 15 16 17 18
287
FTAK31 PAJN 201729
TAFAJN
TAF
PAJN 201729Z 2018/2118 26006KT P6SM SCT020 SCT025 BKN040
     FM202100 07006KT P6SM SKC
     FM210600 09008G15KT P6SM SKC WS010/06030KT=

USA.gov is the U.S. government's official web portal to all federal, state and local government web resources and services.